Time;durP1;ratioP1;P1;durP2;ratioP2;P2;SDS_P1;SDS_P2;PMS_P1;PMS_P2;Temp;Humidity;BMP_temperature;BMP_pressure;BME280_temperature;BME280_humidity;BME280_pressure;Samples;Min_cycle;Max_cycle;Signal;HPM_P1;HPM_P2
2022/11/04 00:02:17;;;;;;;111.50;52.05;;;;;;;;;;5083933;28;20048;-78
2022/11/04 00:05:03;;;;;;;111.25;50.85;;;;;;;;;;5084989;28;20048;-76
2022/11/04 00:13:59;;;;;;;105.93;47.15;;;;;;;;;;5079231;28;20040;-79
2022/11/04 00:29:01;;;;;;;107.43;48.83;;;;;;;;;;5080555;28;20040;-79
2022/11/04 00:34:50;;;;;;;106.07;48.05;;;;;;;;;;5080370;28;20044;-80
2022/11/04 00:37:37;;;;;;;98.88;46.22;;;;;;;;;;5073393;28;20036;-78
2022/11/04 00:40:23;;;;;;;247.30;91.03;;;;;;;;;;5080188;28;20033;-81
2022/11/04 00:43:08;;;;;;;239.27;95.22;;;;;;;;;;5073937;28;20044;-78
2022/11/04 00:45:53;;;;;;;138.02;58.35;;;;;;;;;;5080407;28;20044;-79
2022/11/04 00:48:39;;;;;;;124.70;52.53;;;;;;;;;;5080666;28;20041;-78
2022/11/04 00:51:24;;;;;;;112.32;48.15;;;;;;;;;;5074619;28;20040;-79
2022/11/04 00:54:10;;;;;;;122.88;47.78;;;;;;;;;;5080261;28;20041;-79
2022/11/04 00:56:55;;;;;;;108.25;45.95;;;;;;;;;;5080228;28;20036;-78
2022/11/04 00:59:40;;;;;;;108.32;45.35;;;;;;;;;;5079870;28;20032;-79
2022/11/04 01:02:28;;;;;;;102.30;41.75;;;;;;;;;;5080577;28;20053;-79
2022/11/04 01:05:13;;;;;;;117.07;45.85;;;;;;;;;;5073485;28;20041;-79
2022/11/04 01:07:58;;;;;;;95.28;39.60;;;;;;;;;;5080532;28;20044;-79
2022/11/04 01:10:44;;;;;;;106.38;44.53;;;;;;;;;;5080299;28;20044;-78
2022/11/04 01:13:31;;;;;;;90.30;41.42;;;;;;;;;;5073043;28;20044;-78
2022/11/04 01:16:17;;;;;;;118.72;44.25;;;;;;;;;;5079875;28;20045;-78
2022/11/04 01:19:04;;;;;;;146.23;52.67;;;;;;;;;;5079898;28;20040;-79
2022/11/04 01:21:52;;;;;;;164.18;53.67;;;;;;;;;;5079843;28;20040;-79
2022/11/04 01:24:37;;;;;;;174.70;54.88;;;;;;;;;;5080083;28;20040;-80
2022/11/04 01:27:23;;;;;;;135.50;49.60;;;;;;;;;;5079904;28;20048;-79
2022/11/04 01:30:09;;;;;;;189.45;54.97;;;;;;;;;;5080226;28;20044;-80
2022/11/04 01:32:53;;;;;;;222.60;61.53;;;;;;;;;;5081500;28;20040;-78
2022/11/04 01:35:38;;;;;;;266.60;74.90;;;;;;;;;;5080136;28;20041;-78
2022/11/04 01:38:24;;;;;;;194.63;67.35;;;;;;;;;;5078931;28;20036;-79
2022/11/04 01:41:17;;;;;;;302.17;129.82;;;;;;;;;;5082957;28;20411;-78
2022/11/04 01:44:41;;;;;;;175.23;56.25;;;;;;;;;;5083504;28;20044;-77
2022/11/04 01:47:46;;;;;;;204.60;49.92;;;;;;;;;;5083366;28;20044;-78
2022/11/04 01:50:32;;;;;;;;;;;;;;;;;;5080908;28;20053;-78
2022/11/04 01:53:35;;;;;;;155.95;44.03;;;;;;;;;;5077199;28;19916;-78
2022/11/04 01:56:20;;;;;;;136.25;42.55;;;;;;;;;;5083257;28;20463;-79
2022/11/04 01:59:11;;;;;;;161.10;47.22;;;;;;;;;;5083824;28;20455;-79
2022/11/04 02:01:56;;;;;;;192.25;47.05;;;;;;;;;;5083140;28;20041;-79
2022/11/04 02:04:43;;;;;;;160.25;46.58;;;;;;;;;;5083453;28;20045;-79
2022/11/04 02:07:28;;;;;;;153.85;46.30;;;;;;;;;;5083199;28;20045;-78
2022/11/04 02:10:14;;;;;;;141.82;44.35;;;;;;;;;;5082984;28;20406;-79
2022/11/04 02:13:01;;;;;;;176.93;43.92;;;;;;;;;;5082893;28;20048;-77
2022/11/04 02:16:01;;;;;;;105.70;44.35;;;;;;;;;;5083439;28;20040;-80
2022/11/04 02:19:10;;;;;;;164.93;42.10;;;;;;;;;;5083047;28;20475;-80
2022/11/04 02:22:14;;;;;;;154.73;44.80;;;;;;;;;;5075829;28;20048;-81
2022/11/04 02:25:41;;;;;;;123.60;44.47;;;;;;;;;;5079981;28;20036;-79
2022/11/04 02:28:35;;;;;;;161.05;49.03;;;;;;;;;;5057016;28;20049;-79
2022/11/04 02:31:27;;;;;;;;;;;;;;;;;;5068348;28;20041;-79
2022/11/04 02:34:50;;;;;;;142.60;47.20;;;;;;;;;;5075746;28;19908;-79
2022/11/04 02:37:56;;;;;;;183.30;46.15;;;;;;;;;;5082286;28;20390;-79
2022/11/04 02:41:03;;;;;;;130.48;46.70;;;;;;;;;;5082512;28;20464;-81
2022/11/04 02:44:07;;;;;;;123.97;43.92;;;;;;;;;;5072964;28;20048;-81
2022/11/04 02:46:59;;;;;;;139.65;46.28;;;;;;;;;;5082246;28;20036;-78
2022/11/04 02:49:54;;;;;;;119.30;41.90;;;;;;;;;;5081141;28;20052;-78
2022/11/04 02:52:43;;;;;;;100.75;35.90;;;;;;;;;;5078570;28;20044;-79
2022/11/04 02:55:41;;;;;;;82.43;34.42;;;;;;;;;;5084831;28;20032;-79
2022/11/04 02:58:33;;;;;;;82.45;32.08;;;;;;;;;;5082149;28;20471;-80
2022/11/04 03:01:21;;;;;;;77.43;33.25;;;;;;;;;;5082467;28;20044;-81
2022/11/04 03:04:16;;;;;;;88.88;32.67;;;;;;;;;;5081958;28;20040;-79
2022/11/04 03:07:03;;;;;;;90.13;32.42;;;;;;;;;;5080380;28;20040;-80
2022/11/04 03:09:54;;;;;;;84.68;30.80;;;;;;;;;;5102356;28;20048;-78
2022/11/04 03:12:49;;;;;;;72.88;29.80;;;;;;;;;;5102099;28;20039;-79
2022/11/04 03:15:38;;;;;;;81.95;31.98;;;;;;;;;;5095351;28;20409;-80
2022/11/04 03:18:35;;;;;;;118.45;36.05;;;;;;;;;;5101623;28;20483;-79
2022/11/04 03:21:22;;;;;;;139.65;37.38;;;;;;;;;;5101959;28;20040;-80
2022/11/04 03:24:07;;;;;;;95.97;34.83;;;;;;;;;;5064865;28;20041;-78
2022/11/04 03:27:37;;;;;;;89.20;34.80;;;;;;;;;;5086476;28;20044;-79
2022/11/04 03:30:23;;;;;;;97.28;34.83;;;;;;;;;;5070897;28;20041;-78
2022/11/04 03:33:38;;;;;;;110.38;37.08;;;;;;;;;;5081086;28;20040;-78
2022/11/04 03:36:23;;;;;;;95.38;35.25;;;;;;;;;;5081558;28;20076;-78
2022/11/04 03:39:09;;;;;;;117.78;35.13;;;;;;;;;;5081352;28;20045;-79
2022/11/04 03:41:57;;;;;;;95.55;36.88;;;;;;;;;;5080439;28;20044;-79
2022/11/04 03:44:42;;;;;;;136.10;34.85;;;;;;;;;;5082429;28;20387;-78
2022/11/04 03:47:29;;;;;;;141.10;37.33;;;;;;;;;;5080781;28;20040;-79
2022/11/04 03:50:27;;;;;;;134.35;37.42;;;;;;;;;;5078791;28;20048;-79
2022/11/04 03:53:17;;;;;;;139.98;37.63;;;;;;;;;;5081179;28;20048;-80
2022/11/04 03:56:11;;;;;;;116.20;36.88;;;;;;;;;;5099105;28;20106;-77
2022/11/04 03:59:45;;;;;;;134.73;38.38;;;;;;;;;;5101207;28;20035;-77
2022/11/04 04:02:57;;;;;;;83.65;36.88;;;;;;;;;;5083700;28;20036;-77
2022/11/04 04:05:58;;;;;;;92.68;36.83;;;;;;;;;;5101438;28;20040;-79
2022/11/04 04:08:52;;;;;;;124.22;43.05;;;;;;;;;;5094709;28;20044;-77
2022/11/04 04:11:50;;;;;;;88.22;33.67;;;;;;;;;;5100940;28;20039;-78
2022/11/04 04:14:48;;;;;;;91.43;33.67;;;;;;;;;;5100992;28;20047;-78
2022/11/04 04:17:38;;;;;;;87.32;34.63;;;;;;;;;;5101230;28;20048;-79
2022/11/04 04:20:27;;;;;;;112.30;37.20;;;;;;;;;;5100665;28;20044;-78
2022/11/04 04:29:28;;;;;;;84.85;36.78;;;;;;;;;;5100380;28;20044;-82
2022/11/04 04:32:15;;;;;;;111.15;38.05;;;;;;;;;;5100881;28;20052;-79
2022/11/04 04:47:38;;;;;;;84.97;36.58;;;;;;;;;;5100680;28;20048;-80
2022/11/04 04:50:27;;;;;;;108.18;34.88;;;;;;;;;;5097513;28;20467;-79
2022/11/04 04:53:13;;;;;;;118.60;38.35;;;;;;;;;;5093885;28;20403;-80
2022/11/04 04:55:58;;;;;;;95.43;37.35;;;;;;;;;;5093580;28;20040;-81
2022/11/04 04:58:43;;;;;;;92.50;37.85;;;;;;;;;;5094262;28;20036;-80
2022/11/04 05:01:28;;;;;;;105.57;36.83;;;;;;;;;;5100197;28;20382;-79
2022/11/04 05:04:13;;;;;;;109.50;36.13;;;;;;;;;;5100288;28;20044;-79
2022/11/04 05:06:58;;;;;;;94.72;34.20;;;;;;;;;;5082308;28;20391;-79
2022/11/04 05:09:43;;;;;;;95.10;36.33;;;;;;;;;;5060912;28;20041;-80
2022/11/04 05:13:24;;;;;;;146.68;37.03;;;;;;;;;;5060317;28;20041;-79
2022/11/04 05:15:34;;;;;;;122.70;35.72;;;;;;;;;;5057174;28;20041;-80
2022/11/04 05:18:20;;;;;;;66.93;29.50;;;;;;;;;;5061337;28;20044;-78
2022/11/04 05:21:09;;;;;;;119.25;34.83;;;;;;;;;;5076824;28;20040;-79
2022/11/04 05:23:54;;;;;;;109.45;37.20;;;;;;;;;;5075272;28;20040;-78
2022/11/04 05:47:27;;;;;;;105.13;47.25;;;;;;;;;;5030371;28;20385;-76
2022/11/04 05:50:12;;;;;;;104.05;40.58;;;;;;;;;;5030762;28;20034;-76
2022/11/04 05:52:59;;;;;;;141.77;42.22;;;;;;;;;;5030770;28;20049;-76
2022/11/04 05:55:44;;;;;;;136.35;42.75;;;;;;;;;;5031140;28;20046;-76
2022/11/04 05:58:30;;;;;;;131.95;39.80;;;;;;;;;;5030556;28;20045;-76
2022/11/04 06:01:28;;;;;;;103.93;36.78;;;;;;;;;;5030858;28;20042;-76
2022/11/04 06:04:16;;;;;;;84.47;34.88;;;;;;;;;;5030628;28;20041;-76
2022/11/04 06:07:01;;;;;;;68.80;34.20;;;;;;;;;;5030118;28;20045;-76
2022/11/04 06:09:46;;;;;;;69.43;34.10;;;;;;;;;;5034616;28;20045;-76
2022/11/04 06:12:31;;;;;;;89.93;44.00;;;;;;;;;;5036679;28;20089;-77
2022/11/04 06:15:16;;;;;;;83.30;39.22;;;;;;;;;;5030369;28;20046;-76
2022/11/04 06:18:01;;;;;;;89.03;40.58;;;;;;;;;;5036274;28;20049;-77
2022/11/04 06:20:47;;;;;;;123.72;44.28;;;;;;;;;;5029996;28;20049;-76
2022/11/04 06:23:32;;;;;;;107.22;39.30;;;;;;;;;;5029335;28;20046;-76
2022/11/04 06:26:18;;;;;;;86.80;36.58;;;;;;;;;;5027944;28;20049;-75
2022/11/04 06:29:03;;;;;;;88.43;39.90;;;;;;;;;;5028583;28;20046;-78
2022/11/04 06:31:49;;;;;;;91.40;39.60;;;;;;;;;;5028627;28;20086;-77
2022/11/04 06:34:36;;;;;;;99.15;41.17;;;;;;;;;;5029783;28;20045;-77
2022/11/04 06:37:22;;;;;;;96.03;41.75;;;;;;;;;;5028969;28;20049;-77
2022/11/04 06:40:08;;;;;;;87.15;39.88;;;;;;;;;;5036548;28;20050;-77
2022/11/04 06:42:53;;;;;;;102.88;42.20;;;;;;;;;;5029956;28;20046;-77
2022/11/04 06:45:39;;;;;;;119.75;42.78;;;;;;;;;;5034394;28;20046;-76
2022/11/04 06:48:25;;;;;;;85.07;40.53;;;;;;;;;;5016466;28;20046;-76
2022/11/04 06:51:10;;;;;;;90.13;43.90;;;;;;;;;;5016562;28;20507;-76
2022/11/04 06:53:55;;;;;;;102.15;46.00;;;;;;;;;;5016623;28;20050;-77
2022/11/04 06:56:42;;;;;;;91.85;44.00;;;;;;;;;;5018877;28;20041;-76
2022/11/04 06:59:27;;;;;;;86.93;43.17;;;;;;;;;;5016251;28;20042;-76
2022/11/04 07:02:12;;;;;;;96.65;39.97;;;;;;;;;;5023211;28;20046;-76
2022/11/04 07:04:58;;;;;;;77.22;37.95;;;;;;;;;;5022865;28;20491;-77
2022/11/04 07:07:44;;;;;;;73.85;40.22;;;;;;;;;;5016127;28;20050;-76
2022/11/04 07:10:29;;;;;;;88.40;42.13;;;;;;;;;;5016284;28;20038;-76
2022/11/04 07:13:16;;;;;;;84.10;38.83;;;;;;;;;;5016229;28;20046;-76
2022/11/04 07:16:06;;;;;;;87.72;44.05;;;;;;;;;;5016137;28;20041;-75
2022/11/04 07:18:53;;;;;;;76.55;39.95;;;;;;;;;;5016192;28;20046;-76
2022/11/04 07:21:38;;;;;;;82.25;41.35;;;;;;;;;;5015917;28;20045;-76
2022/11/04 07:24:24;;;;;;;87.85;37.75;;;;;;;;;;5016237;28;20042;-76
2022/11/04 07:27:09;;;;;;;77.85;34.95;;;;;;;;;;5015241;28;20046;-76
2022/11/04 07:29:55;;;;;;;81.60;40.30;;;;;;;;;;5015962;28;20077;-77
2022/11/04 07:32:41;;;;;;;88.10;37.90;;;;;;;;;;5015934;28;20069;-77
2022/11/04 07:35:26;;;;;;;90.68;39.20;;;;;;;;;;5015571;28;20514;-76
2022/11/04 07:38:11;;;;;;;95.03;42.30;;;;;;;;;;5015803;28;20041;-75
2022/11/04 07:40:57;;;;;;;91.35;41.58;;;;;;;;;;5018507;28;20049;-76
2022/11/04 07:43:46;;;;;;;88.82;41.53;;;;;;;;;;5022460;28;20053;-76
2022/11/04 07:46:32;;;;;;;90.80;42.20;;;;;;;;;;5015290;28;20416;-76
2022/11/04 07:49:17;;;;;;;85.97;43.40;;;;;;;;;;5015493;28;20046;-76
2022/11/04 07:52:03;;;;;;;93.20;43.40;;;;;;;;;;5015495;28;20486;-76
2022/11/04 07:54:48;;;;;;;98.85;45.40;;;;;;;;;;5021617;28;20088;-76
2022/11/04 07:57:34;;;;;;;88.45;41.67;;;;;;;;;;5022084;28;20042;-79
2022/11/04 08:00:20;;;;;;;79.60;43.10;;;;;;;;;;5021076;28;20046;-80
2022/11/04 08:03:05;;;;;;;72.55;42.78;;;;;;;;;;5015371;28;20042;-78
2022/11/04 08:05:59;;;;;;;94.20;46.40;;;;;;;;;;5023051;28;20054;-81
2022/11/04 08:08:44;;;;;;;100.13;45.72;;;;;;;;;;5014270;28;20050;-81
2022/11/04 08:11:30;;;;;;;96.30;47.90;;;;;;;;;;5015421;28;20045;-81
2022/11/04 08:14:15;;;;;;;96.15;48.80;;;;;;;;;;5015501;28;20041;-81
2022/11/04 08:17:00;;;;;;;72.00;39.53;;;;;;;;;;5015442;28;20061;-81
2022/11/04 08:19:46;;;;;;;79.95;43.75;;;;;;;;;;5015510;28;20050;-79
2022/11/04 08:22:33;;;;;;;72.47;40.58;;;;;;;;;;5015156;28;20042;-80
2022/11/04 08:25:19;;;;;;;76.72;42.65;;;;;;;;;;5027746;28;20037;-80
2022/11/04 08:28:04;;;;;;;79.03;42.13;;;;;;;;;;5020319;28;20046;-80
2022/11/04 08:30:52;;;;;;;66.30;36.75;;;;;;;;;;5020632;28;20041;-80
2022/11/04 08:33:37;;;;;;;66.55;37.35;;;;;;;;;;5014818;28;20046;-80
2022/11/04 08:36:31;;;;;;;74.38;39.13;;;;;;;;;;5015207;28;20050;-80
2022/11/04 08:39:17;;;;;;;;;;;;;;;;;;5015489;28;20050;-80
2022/11/04 08:42:03;;;;;;;57.58;34.50;;;;;;;;;;5014769;28;20339;-80
2022/11/04 08:44:51;;;;;;;67.50;37.78;;;;;;;;;;5014856;28;20046;-80
2022/11/04 08:47:37;;;;;;;62.67;34.50;;;;;;;;;;5014443;28;20041;-80
2022/11/04 08:50:26;;;;;;;67.93;34.45;;;;;;;;;;5014859;28;20042;-80
2022/11/04 08:53:11;;;;;;;63.67;36.10;;;;;;;;;;5014626;28;20392;-80
2022/11/04 08:55:57;;;;;;;62.58;37.47;;;;;;;;;;5014673;28;20054;-80
2022/11/04 08:58:43;;;;;;;39.88;23.65;;;;;;;;;;5013351;28;20042;-77
2022/11/04 09:01:31;;;;;;;71.85;37.65;;;;;;;;;;5014469;28;20395;-77
2022/11/04 09:04:16;;;;;;;57.40;32.47;;;;;;;;;;5014230;28;20038;-77
2022/11/04 09:07:02;;;;;;;76.88;36.55;;;;;;;;;;5014078;28;20041;-76
2022/11/04 09:09:47;;;;;;;74.05;38.33;;;;;;;;;;5014142;28;20038;-77
2022/11/04 09:12:32;;;;;;;68.35;35.00;;;;;;;;;;5018605;28;20487;-77
2022/11/04 09:15:17;;;;;;;73.60;37.28;;;;;;;;;;5013902;28;20435;-78
2022/11/04 09:18:03;;;;;;;70.40;35.33;;;;;;;;;;5013897;28;20049;-77
2022/11/04 09:20:48;;;;;;;63.13;36.25;;;;;;;;;;5013677;28;20046;-77
2022/11/04 09:23:33;;;;;;;67.70;36.88;;;;;;;;;;5013768;28;20483;-78
2022/11/04 09:26:22;;;;;;;70.60;37.35;;;;;;;;;;5013907;28;20038;-80
2022/11/04 09:29:08;;;;;;;75.95;40.40;;;;;;;;;;5014165;28;20037;-80
2022/11/04 09:31:55;;;;;;;60.53;35.22;;;;;;;;;;5013923;28;20050;-80
2022/11/04 09:34:40;;;;;;;76.75;39.65;;;;;;;;;;5014033;28;20498;-80
2022/11/04 09:37:26;;;;;;;67.18;36.83;;;;;;;;;;5020587;28;20046;-80
2022/11/04 09:40:18;;;;;;;66.03;34.13;;;;;;;;;;5014071;28;20042;-80
2022/11/04 09:43:27;;;;;;;61.75;31.55;;;;;;;;;;5014080;28;20413;-80
2022/11/04 09:46:14;;;;;;;64.00;35.72;;;;;;;;;;5013598;28;20046;-80
2022/11/04 09:49:04;;;;;;;72.93;37.42;;;;;;;;;;5020326;28;20046;-80
2022/11/04 09:51:50;;;;;;;63.50;33.95;;;;;;;;;;5020346;28;20051;-80
2022/11/04 09:54:47;;;;;;;74.10;36.63;;;;;;;;;;5013888;28;20388;-80
2022/11/04 09:57:33;;;;;;;82.93;35.97;;;;;;;;;;5015901;28;20049;-81
2022/11/04 10:00:19;;;;;;;77.95;38.28;;;;;;;;;;5013728;28;20049;-80
2022/11/04 10:03:07;;;;;;;74.40;37.58;;;;;;;;;;5013975;28;20034;-80
2022/11/04 10:06:14;;;;;;;70.80;35.60;;;;;;;;;;5013637;28;20045;-80
2022/11/04 10:09:07;;;;;;;66.75;35.75;;;;;;;;;;5013675;28;20053;-80
2022/11/04 10:12:20;;;;;;;73.72;34.83;;;;;;;;;;5013921;28;20491;-80
2022/11/04 10:15:35;;;;;;;60.17;30.33;;;;;;;;;;5020198;28;20041;-79
2022/11/04 10:18:45;;;;;;;50.63;27.13;;;;;;;;;;5013931;28;20053;-81
2022/11/04 10:22:00;;;;;;;64.35;33.25;;;;;;;;;;5013566;28;20045;-78
2022/11/04 10:25:07;;;;;;;79.28;37.42;;;;;;;;;;5017129;28;20395;-78
2022/11/04 10:27:52;;;;;;;74.38;34.67;;;;;;;;;;5017545;28;20049;-78
2022/11/04 10:30:42;;;;;;;70.78;32.65;;;;;;;;;;5016961;28;20045;-78
2022/11/04 10:34:05;;;;;;;60.83;29.63;;;;;;;;;;5017233;28;20049;-78
2022/11/04 10:36:51;;;;;;;60.13;31.55;;;;;;;;;;5016021;28;20483;-78
2022/11/04 10:39:42;;;;;;;60.05;31.02;;;;;;;;;;5023649;28;20383;-82
2022/11/04 10:42:27;;;;;;;65.53;30.92;;;;;;;;;;5017155;28;20494;-83
2022/11/04 10:45:13;;;;;;;64.55;32.10;;;;;;;;;;5030518;28;20395;-81
2022/11/04 10:48:04;;;;;;;58.90;28.38;;;;;;;;;;5023140;28;20057;-82
2022/11/04 10:50:50;;;;;;;71.22;32.70;;;;;;;;;;5016750;28;20041;-79
2022/11/04 10:53:36;;;;;;;64.32;35.25;;;;;;;;;;5023237;28;20042;-79
2022/11/04 10:56:38;;;;;;;51.08;29.83;;;;;;;;;;5017259;28;20054;-78
2022/11/04 10:59:33;;;;;;;60.58;29.15;;;;;;;;;;5016391;28;20046;-78
2022/11/04 11:02:42;;;;;;;49.17;27.38;;;;;;;;;;5016428;28;20046;-78
2022/11/04 11:05:28;;;;;;;51.50;28.02;;;;;;;;;;5016090;28;20042;-79
2022/11/04 11:08:31;;;;;;;49.63;28.45;;;;;;;;;;5016799;28;20041;-79
2022/11/04 11:11:35;;;;;;;50.85;26.83;;;;;;;;;;5023048;28;20058;-78
2022/11/04 11:14:27;;;;;;;48.90;28.50;;;;;;;;;;5016469;28;20049;-77
2022/11/04 11:17:17;;;;;;;58.00;30.67;;;;;;;;;;5016358;28;20049;-77
2022/11/04 11:20:15;;;;;;;53.08;27.83;;;;;;;;;;5022317;28;20034;-78
2022/11/04 11:23:01;;;;;;;52.40;25.67;;;;;;;;;;5022572;28;20478;-79
2022/11/04 11:25:50;;;;;;;54.55;29.83;;;;;;;;;;5015902;28;20046;-78
2022/11/04 11:28:37;;;;;;;61.75;27.95;;;;;;;;;;5015768;28;20046;-78
2022/11/04 11:31:25;;;;;;;49.85;26.42;;;;;;;;;;5026020;28;20050;-77
2022/11/04 11:34:19;;;;;;;47.08;26.30;;;;;;;;;;5015988;28;20046;-77
2022/11/04 11:37:20;;;;;;;41.38;19.85;;;;;;;;;;5016005;28;20395;-77
2022/11/04 11:40:26;;;;;;;43.45;20.42;;;;;;;;;;5021245;28;20038;-77
2022/11/04 11:43:23;;;;;;;87.38;29.90;;;;;;;;;;5015903;28;20049;-78
2022/11/04 11:46:10;;;;;;;35.40;16.25;;;;;;;;;;5015278;28;20057;-80
2022/11/04 11:49:00;;;;;;;30.35;15.32;;;;;;;;;;5015654;28;20502;-80
2022/11/04 11:51:45;;;;;;;39.63;16.83;;;;;;;;;;5022047;28;20042;-78
2022/11/04 11:54:37;;;;;;;38.20;17.10;;;;;;;;;;5021985;28;20046;-78
2022/11/04 11:57:51;;;;;;;43.15;18.10;;;;;;;;;;5014384;28;20502;-77
2022/11/04 12:00:47;;;;;;;59.20;32.05;;;;;;;;;;5015281;28;20034;-76
2022/11/04 12:03:40;;;;;;;73.43;32.35;;;;;;;;;;5021945;28;20414;-76
2022/11/04 12:06:47;;;;;;;65.90;33.35;;;;;;;;;;5014821;28;20042;-76
2022/11/04 12:09:45;;;;;;;58.38;31.80;;;;;;;;;;5015107;28;20041;-78
2022/11/04 12:12:57;;;;;;;51.35;28.73;;;;;;;;;;5015370;28;20046;-77
2022/11/04 12:16:05;;;;;;;60.05;32.13;;;;;;;;;;5021494;28;20487;-75
2022/11/04 12:19:12;;;;;;;64.70;32.22;;;;;;;;;;5017661;28;20054;-77
2022/11/04 12:22:12;;;;;;;46.85;23.40;;;;;;;;;;5021420;28;20042;-75
2022/11/04 12:25:03;;;;;;;43.45;23.05;;;;;;;;;;5014908;28;20034;-76
2022/11/04 12:28:14;;;;;;;34.38;15.02;;;;;;;;;;5014700;28;20168;-76
2022/11/04 12:31:05;;;;;;;28.17;11.82;;;;;;;;;;5021049;28;20054;-75
2022/11/04 12:34:15;;;;;;;29.55;12.23;;;;;;;;;;5014624;28;20045;-78
2022/11/04 12:37:07;;;;;;;27.23;12.20;;;;;;;;;;5021318;28;20058;-77
2022/11/04 12:39:58;;;;;;;28.90;13.73;;;;;;;;;;5021404;28;20042;-76
2022/11/04 12:42:49;;;;;;;25.48;13.63;;;;;;;;;;5014439;28;20038;-77
2022/11/04 12:46:16;;;;;;;26.65;12.32;;;;;;;;;;5019013;28;20042;-76
2022/11/04 12:49:17;;;;;;;25.63;12.00;;;;;;;;;;5014595;28;20038;-76
2022/11/04 12:52:20;;;;;;;31.77;12.73;;;;;;;;;;5021220;28;20046;-77
2022/11/04 12:55:30;;;;;;;28.55;13.32;;;;;;;;;;5020734;28;20054;-76
2022/11/04 12:58:44;;;;;;;26.98;12.98;;;;;;;;;;5014407;28;20045;-77
2022/11/04 13:01:40;;;;;;;;;;;;;;;;;;5021212;28;20050;-77
2022/11/04 13:04:37;;;;;;;30.35;14.25;;;;;;;;;;5014593;28;20374;-77
2022/11/04 13:07:30;;;;;;;27.77;13.18;;;;;;;;;;5020363;28;20498;-76
2022/11/04 13:10:23;;;;;;;31.60;14.82;;;;;;;;;;5013962;28;20053;-76
2022/11/04 13:13:11;;;;;;;31.25;14.93;;;;;;;;;;5014013;28;20045;-76
2022/11/04 13:15:59;;;;;;;33.58;14.05;;;;;;;;;;5013850;28;20402;-76
2022/11/04 13:18:46;;;;;;;26.15;11.10;;;;;;;;;;5013716;28;20398;-76
2022/11/04 13:21:37;;;;;;;28.85;12.07;;;;;;;;;;5020405;28;20042;-75
2022/11/04 13:24:37;;;;;;;27.30;12.30;;;;;;;;;;5013791;28;20038;-76
2022/11/04 13:27:27;;;;;;;22.65;11.18;;;;;;;;;;5013698;28;20042;-76
2022/11/04 13:30:33;;;;;;;24.85;11.15;;;;;;;;;;5013787;28;20042;-76
2022/11/04 13:33:34;;;;;;;28.23;12.75;;;;;;;;;;5019297;28;20041;-76
2022/11/04 13:36:40;;;;;;;27.88;14.02;;;;;;;;;;5013691;28;20049;-76
2022/11/04 13:39:41;;;;;;;31.83;13.88;;;;;;;;;;5013561;28;20057;-76
2022/11/04 13:46:30;;;;;;;32.70;17.55;;;;;;;;;;5015940;28;20045;-76
2022/11/04 13:49:31;;;;;;;35.70;17.27;;;;;;;;;;5020010;28;20049;-77
2022/11/04 13:52:17;;;;;;;32.00;16.15;;;;;;;;;;5014211;28;20396;-76
2022/11/04 13:55:20;;;;;;;32.80;17.55;;;;;;;;;;5013506;28;20037;-76
2022/11/04 13:58:05;;;;;;;37.70;19.60;;;;;;;;;;5024048;28;20049;-76
2022/11/04 14:01:20;;;;;;;64.90;34.08;;;;;;;;;;5018123;28;20396;-76
2022/11/04 14:04:23;;;;;;;43.20;19.85;;;;;;;;;;5024104;28;20042;-76
2022/11/04 14:07:13;;;;;;;50.70;23.42;;;;;;;;;;5016676;28;20403;-77
2022/11/04 14:09:59;;;;;;;39.90;21.27;;;;;;;;;;5017347;28;20049;-76
2022/11/04 14:12:44;;;;;;;60.83;28.92;;;;;;;;;;5016575;28;20049;-77
2022/11/04 14:16:07;;;;;;;79.97;41.58;;;;;;;;;;5016855;28;20046;-76
2022/11/04 14:18:52;;;;;;;93.93;46.67;;;;;;;;;;5017198;28;20398;-76
2022/11/04 14:22:05;;;;;;;69.88;33.75;;;;;;;;;;5016813;28;20487;-76
2022/11/04 14:24:58;;;;;;;37.65;18.65;;;;;;;;;;5017386;28;20050;-76
2022/11/04 14:27:45;;;;;;;32.53;17.88;;;;;;;;;;5016612;28;20049;-76
2022/11/04 14:30:36;;;;;;;40.53;18.35;;;;;;;;;;5023682;28;20042;-76
2022/11/04 14:33:35;;;;;;;30.80;14.65;;;;;;;;;;5016565;28;20038;-77
2022/11/04 14:36:20;;;;;;;27.20;14.18;;;;;;;;;;5019117;28;20058;-76
2022/11/04 14:39:11;;;;;;;34.58;15.25;;;;;;;;;;5023294;28;20046;-76
2022/11/04 14:42:00;;;;;;;33.35;15.80;;;;;;;;;;5023210;28;20042;-79
2022/11/04 14:44:49;;;;;;;37.30;18.13;;;;;;;;;;5016814;28;20041;-80
2022/11/04 14:47:36;;;;;;;41.33;20.15;;;;;;;;;;5015619;28;20499;-78
2022/11/04 14:50:27;;;;;;;48.40;23.50;;;;;;;;;;5023748;28;20490;-79
2022/11/04 14:53:27;;;;;;;51.53;20.45;;;;;;;;;;5014876;28;20041;-78
2022/11/04 14:56:21;;;;;;;45.33;19.92;;;;;;;;;;5015369;28;20046;-79
2022/11/04 14:59:06;;;;;;;41.17;18.98;;;;;;;;;;5016275;28;20058;-79
2022/11/04 15:01:52;;;;;;;37.78;18.98;;;;;;;;;;5016211;28;20057;-79
2022/11/04 15:04:46;;;;;;;318.77;176.65;;;;;;;;;;5016161;28;20050;-79
2022/11/04 15:07:36;;;;;;;249.48;163.93;;;;;;;;;;5015789;28;20487;-77
2022/11/04 15:10:24;;;;;;;55.25;27.00;;;;;;;;;;5022733;28;20053;-80
2022/11/04 15:13:09;;;;;;;49.90;26.35;;;;;;;;;;5022162;28;20058;-75
2022/11/04 15:15:57;;;;;;;44.20;23.25;;;;;;;;;;5014695;28;20045;-77
2022/11/04 15:18:47;;;;;;;49.35;24.33;;;;;;;;;;5020514;28;20053;-76
2022/11/04 15:21:40;;;;;;;50.90;24.10;;;;;;;;;;5020664;28;20046;-78
2022/11/04 15:24:49;;;;;;;47.40;22.83;;;;;;;;;;5015051;28;20491;-78
2022/11/04 15:27:33;;;;;;;47.90;24.35;;;;;;;;;;5020386;28;20045;-76
2022/11/04 15:30:28;;;;;;;61.88;29.90;;;;;;;;;;5025059;28;20050;-76
2022/11/04 15:33:16;;;;;;;61.70;29.42;;;;;;;;;;5020270;28;20041;-76
2022/11/04 15:36:02;;;;;;;63.92;30.77;;;;;;;;;;5019617;28;20046;-79
2022/11/04 15:38:56;;;;;;;53.90;25.30;;;;;;;;;;5019040;28;20490;-77
2022/11/04 15:44:51;;;;;;;59.47;28.13;;;;;;;;;;5019249;28;20042;-79
2022/11/04 15:47:36;;;;;;;69.85;31.48;;;;;;;;;;5022683;28;20053;-80
2022/11/04 15:50:24;;;;;;;76.00;32.97;;;;;;;;;;5016217;28;20045;-79
2022/11/04 15:53:10;;;;;;;78.47;36.25;;;;;;;;;;5015270;28;20053;-79
2022/11/04 15:55:55;;;;;;;77.32;35.47;;;;;;;;;;5015256;28;20053;-77
2022/11/04 15:58:44;;;;;;;85.18;42.45;;;;;;;;;;5015167;28;20041;-78
2022/11/04 16:01:31;;;;;;;121.53;66.60;;;;;;;;;;5015028;28;20483;-78
2022/11/04 16:04:18;;;;;;;99.68;49.30;;;;;;;;;;5021245;28;20050;-78
2022/11/04 16:07:16;;;;;;;83.82;40.38;;;;;;;;;;5019528;28;20054;-79
2022/11/04 16:10:02;;;;;;;84.68;40.75;;;;;;;;;;5014910;28;20046;-78
2022/11/04 16:12:50;;;;;;;88.43;41.22;;;;;;;;;;5014866;28;20396;-79
2022/11/04 16:15:40;;;;;;;137.25;65.15;;;;;;;;;;5021816;28;20061;-80
2022/11/04 16:18:38;;;;;;;105.82;49.88;;;;;;;;;;5015019;28;20046;-79
2022/11/04 16:21:33;;;;;;;103.70;48.05;;;;;;;;;;5020831;28;20049;-80
2022/11/04 16:24:28;;;;;;;103.95;48.83;;;;;;;;;;5021694;28;20046;-80
2022/11/04 16:27:18;;;;;;;136.82;66.78;;;;;;;;;;5021118;28;20049;-81
2022/11/04 16:30:23;;;;;;;546.38;362.63;;;;;;;;;;5015064;28;20355;-81
2022/11/04 16:33:15;;;;;;;194.60;98.20;;;;;;;;;;5021498;28;20042;-81
2022/11/04 16:36:24;;;;;;;143.73;70.90;;;;;;;;;;5014681;28;20411;-81
2022/11/04 16:39:10;;;;;;;148.73;74.30;;;;;;;;;;5021101;28;20038;-79
2022/11/04 16:41:56;;;;;;;246.43;124.93;;;;;;;;;;5014523;28;20049;-78
2022/11/04 16:44:49;;;;;;;144.27;67.15;;;;;;;;;;5014339;28;20384;-79
2022/11/04 16:47:38;;;;;;;183.55;101.35;;;;;;;;;;5013867;28;20498;-79
2022/11/04 16:50:25;;;;;;;111.78;54.08;;;;;;;;;;5014314;28;20050;-79
2022/11/04 16:53:12;;;;;;;119.45;57.80;;;;;;;;;;5020436;28;20046;-79
2022/11/04 16:55:58;;;;;;;131.13;62.78;;;;;;;;;;5020863;28;20050;-79
2022/11/04 16:58:44;;;;;;;135.57;70.32;;;;;;;;;;5014805;28;20046;-80
2022/11/04 17:01:30;;;;;;;118.40;60.35;;;;;;;;;;5014043;28;20487;-81
2022/11/04 17:04:16;;;;;;;110.60;52.65;;;;;;;;;;5014469;28;20407;-81
2022/11/04 17:07:01;;;;;;;90.50;39.78;;;;;;;;;;5013780;28;20049;-80
2022/11/04 17:09:47;;;;;;;172.60;85.30;;;;;;;;;;5005585;28;20511;-81
2022/11/04 17:12:32;;;;;;;135.75;69.53;;;;;;;;;;5013277;28;20050;-81
2022/11/04 17:15:18;;;;;;;104.53;50.75;;;;;;;;;;5013829;28;20054;-81
2022/11/04 17:18:04;;;;;;;90.05;44.22;;;;;;;;;;5012325;28;20058;-83
2022/11/04 17:20:52;;;;;;;80.47;40.33;;;;;;;;;;5013176;28;20058;-83
2022/11/04 17:23:38;;;;;;;68.22;35.95;;;;;;;;;;5013468;28;20479;-81
2022/11/04 17:26:23;;;;;;;97.00;47.08;;;;;;;;;;5013923;28;20392;-81
2022/11/04 17:29:09;;;;;;;83.97;41.55;;;;;;;;;;5014003;28;20479;-80
2022/11/04 17:31:55;;;;;;;84.43;44.00;;;;;;;;;;5020285;28;20053;-76
2022/11/04 17:34:41;;;;;;;95.53;47.75;;;;;;;;;;5020761;28;20042;-77
2022/11/04 17:37:27;;;;;;;69.00;37.72;;;;;;;;;;5014080;28;20061;-77
2022/11/04 17:40:15;;;;;;;99.13;47.20;;;;;;;;;;5013670;28;20491;-79
2022/11/04 17:49:27;;;;;;;62.60;29.98;;;;;;;;;;5013457;28;20054;-80